createdAt,value
2022-09-09T00:00:55.509Z,13.40
2022-09-09T00:03:53.910Z,9.47
2022-09-09T00:06:36.889Z,11.57
2022-09-09T00:09:20.336Z,10.10
2022-09-09T00:12:09.599Z,6.63
2022-09-09T00:14:56.163Z,8.60
2022-09-09T00:18:02.189Z,11.50
2022-09-09T00:21:19.941Z,8.80
2022-09-09T00:23:55.454Z,6.13
2022-09-09T00:26:35.032Z,8.50
2022-09-09T00:29:08.480Z,7.50
2022-09-09T00:31:36.022Z,6.60
2022-09-09T00:34:18.278Z,6.73
2022-09-09T00:36:46.410Z,9.10
2022-09-09T00:39:39.304Z,6.80
2022-09-09T00:42:25.231Z,9.77
2022-09-09T00:45:29.063Z,7.33
2022-09-09T00:47:57.905Z,5.77
2022-09-09T00:50:31.034Z,12.40
2022-09-09T00:53:03.212Z,8.50
2022-09-09T00:55:56.085Z,7.63
2022-09-09T00:58:23.094Z,8.67
2022-09-09T01:01:02.353Z,11.70
2022-09-09T01:03:41.881Z,6.97
2022-09-09T01:06:30.289Z,9.73
2022-09-09T01:09:18.977Z,5.93
2022-09-09T01:12:18.928Z,6.20
2022-09-09T01:14:55.151Z,9.17
2022-09-09T01:17:31.351Z,7.20
2022-09-09T01:20:07.373Z,10.90
2022-09-09T01:23:02.366Z,10.47
2022-09-09T01:26:05.514Z,6.43
2022-09-09T01:28:36.631Z,6.97
2022-09-09T01:31:12.987Z,6.67
2022-09-09T01:33:44.603Z,8.30
2022-09-09T01:36:35.659Z,9.37
2022-09-09T01:39:02.929Z,8.60
2022-09-09T01:41:29.981Z,8.67
2022-09-09T01:44:04.076Z,9.20
2022-09-09T01:46:33.576Z,11.43
2022-09-09T01:49:02.850Z,7.57
2022-09-09T01:51:30.289Z,6.27
2022-09-09T01:54:01.421Z,7.40
2022-09-09T01:56:34.196Z,10.97
2022-09-09T01:59:07.316Z,7.57
2022-09-09T02:01:40.548Z,9.07
2022-09-09T02:04:38.705Z,7.63
2022-09-09T02:07:49.686Z,8.00
2022-09-09T02:10:47.165Z,12.17
2022-09-09T02:13:23.920Z,9.77
2022-09-09T02:16:04.076Z,11.63
2022-09-09T02:18:49.952Z,8.23
2022-09-09T02:21:19.939Z,11.23
2022-09-09T02:23:50.464Z,13.60
2022-09-09T02:26:21.310Z,11.60
2022-09-09T02:28:54.278Z,11.27
2022-09-09T02:31:25.501Z,15.47
2022-09-09T02:34:01.632Z,16.93
2022-09-09T02:36:34.455Z,8.37
2022-09-09T02:39:02.384Z,16.93
2022-09-09T02:41:38.701Z,11.27
2022-09-09T02:44:18.463Z,9.13
2022-09-09T02:47:09.703Z,12.53
2022-09-09T02:49:50.566Z,9.43
2022-09-09T02:52:31.400Z,10.50
2022-09-09T02:55:05.718Z,19.73
2022-09-09T02:57:34.311Z,13.50
2022-09-09T03:00:02.688Z,12.57
2022-09-09T03:02:32.325Z,14.30
2022-09-09T03:05:04.738Z,12.17
2022-09-09T03:07:31.778Z,12.63
2022-09-09T03:09:59.325Z,8.90
2022-09-09T03:12:28.162Z,11.83
2022-09-09T03:14:55.356Z,9.83
2022-09-09T03:17:22.342Z,13.50
2022-09-09T03:19:55.494Z,10.67
2022-09-09T03:22:23.108Z,14.97
2022-09-09T03:24:50.315Z,13.13
2022-09-09T03:27:18.433Z,10.93
2022-09-09T03:29:46.158Z,13.07
2022-09-09T03:32:18.951Z,13.17
2022-09-09T03:34:48.607Z,14.27
2022-09-09T03:37:16.671Z,10.13
2022-09-09T03:39:43.731Z,13.33
2022-09-09T03:42:15.849Z,12.83
2022-09-09T03:44:43.009Z,10.83
2022-09-09T03:47:10.444Z,15.83
2022-09-09T03:49:38.133Z,9.07
2022-09-09T03:52:05.602Z,11.47
2022-09-09T03:54:32.782Z,11.87
2022-09-09T03:56:59.724Z,7.77
2022-09-09T03:59:27.416Z,9.83
2022-09-09T04:01:55.876Z,12.47
2022-09-09T04:04:23.326Z,12.10
2022-09-09T04:06:51.948Z,9.80
2022-09-09T04:09:19.029Z,14.40
2022-09-09T04:11:47.125Z,11.90
2022-09-09T04:14:15.288Z,14.30
2022-09-09T04:16:44.228Z,10.23
2022-09-09T04:19:14.675Z,22.80
2022-09-09T04:21:43.481Z,33.03
2022-09-09T04:24:10.707Z,9.53
2022-09-09T04:26:38.342Z,9.10
2022-09-09T04:29:06.056Z,10.87
2022-09-09T04:31:33.530Z,12.23
2022-09-09T04:34:06.226Z,9.80
2022-09-09T04:36:34.157Z,13.23
2022-09-09T04:39:04.397Z,14.10
2022-09-09T04:41:32.444Z,12.40
2022-09-09T04:44:01.766Z,22.10
2022-09-09T04:46:29.143Z,19.73
2022-09-09T04:48:57.830Z,22.33
2022-09-09T04:51:29.268Z,17.80
2022-09-09T04:53:56.312Z,14.17
2022-09-09T04:56:23.726Z,15.37
2022-09-09T04:58:53.548Z,15.63
2022-09-09T05:01:25.377Z,21.67
2022-09-09T05:03:54.511Z,22.53
2022-09-09T05:06:23.741Z,19.17
2022-09-09T05:08:56.718Z,20.90
2022-09-09T05:11:31.988Z,22.57
2022-09-09T05:14:08.140Z,24.13
2022-09-09T05:16:36.254Z,20.03
2022-09-09T05:19:04.351Z,24.33
2022-09-09T05:21:42.674Z,27.63
2022-09-09T05:24:09.919Z,31.13
2022-09-09T05:26:37.072Z,39.10
2022-09-09T05:29:04.054Z,29.20
2022-09-09T05:31:32.249Z,46.67
2022-09-09T05:34:03.332Z,37.80
2022-09-09T05:36:30.361Z,41.67
2022-09-09T05:38:57.901Z,41.50
2022-09-09T05:41:27.443Z,46.67
2022-09-09T05:43:57.007Z,50.73
2022-09-09T05:46:26.244Z,40.83
2022-09-09T05:48:55.304Z,35.50
2022-09-09T05:51:33.127Z,46.63
2022-09-09T05:54:05.266Z,37.07
2022-09-09T05:56:35.479Z,39.43
2022-09-09T05:59:02.890Z,42.53
2022-09-09T06:01:32.797Z,28.73
2022-09-09T06:04:01.466Z,43.77
2022-09-09T06:06:33.101Z,33.17
2022-09-09T06:09:00.811Z,35.60
2022-09-09T06:11:35.478Z,38.70
2022-09-09T06:14:02.604Z,37.83
2022-09-09T06:16:33.634Z,43.07
2022-09-09T06:19:02.156Z,63.10
2022-09-09T06:21:38.275Z,34.13
2022-09-09T06:24:11.277Z,54.87
2022-09-09T06:26:43.596Z,39.13
2022-09-09T06:29:13.847Z,39.93
2022-09-09T06:31:43.015Z,33.73
2022-09-09T06:34:21.199Z,42.27
2022-09-09T06:36:52.186Z,28.20
2022-09-09T06:39:19.186Z,27.70
2022-09-09T06:41:47.014Z,33.83
2022-09-09T06:44:40.058Z,26.93
2022-09-09T06:47:12.024Z,22.67
2022-09-09T06:49:40.736Z,36.80
2022-09-09T06:52:10.558Z,26.13
2022-09-09T06:54:38.495Z,24.87
2022-09-09T06:57:27.125Z,32.27
2022-09-09T06:59:56.813Z,35.47
2022-09-09T07:02:24.813Z,33.87
2022-09-09T07:04:52.649Z,27.37
2022-09-09T07:07:20.919Z,31.93
2022-09-09T07:09:48.114Z,25.13
2022-09-09T07:12:15.676Z,22.40
2022-09-09T07:14:50.512Z,20.90
2022-09-09T07:17:17.511Z,20.13
2022-09-09T07:19:44.797Z,22.73
2022-09-09T07:22:11.751Z,20.97
2022-09-09T07:24:39.618Z,23.27
2022-09-09T07:27:07.122Z,22.03
2022-09-09T07:29:35.759Z,24.37
2022-09-09T07:32:04.811Z,20.23
2022-09-09T07:34:36.076Z,24.27
2022-09-09T07:37:03.357Z,20.70
2022-09-09T07:39:31.701Z,20.83
2022-09-09T07:41:59.776Z,24.70
2022-09-09T07:44:28.024Z,21.80
2022-09-09T07:47:05.224Z,22.40
2022-09-09T07:49:37.420Z,21.97
2022-09-09T07:54:34.521Z,16.87
2022-09-09T07:57:05.275Z,19.80
2022-09-09T07:59:34.656Z,22.50
2022-09-09T08:02:02.576Z,17.13
2022-09-09T08:04:32.299Z,20.30
2022-09-09T08:07:02.022Z,19.20
2022-09-09T08:09:33.323Z,19.80
2022-09-09T08:12:17.406Z,18.83
2022-09-09T08:14:44.903Z,23.47
2022-09-09T08:17:12.022Z,24.27
2022-09-09T08:19:39.429Z,21.73
2022-09-09T08:22:11.804Z,20.27
2022-09-09T08:24:40.709Z,14.87
2022-09-09T08:27:08.626Z,21.90
2022-09-09T08:29:35.636Z,16.13
2022-09-09T08:32:03.375Z,18.27
2022-09-09T08:34:32.295Z,15.83
2022-09-09T08:37:02.847Z,14.03
2022-09-09T08:39:35.617Z,14.33
2022-09-09T08:42:35.176Z,13.07
2022-09-09T08:45:30.498Z,13.33
2022-09-09T08:48:27.595Z,11.43
2022-09-09T08:51:01.509Z,12.30
2022-09-09T08:53:47.658Z,9.90
2022-09-09T08:56:20.013Z,14.00
2022-09-09T08:58:52.270Z,11.77
2022-09-09T09:01:51.469Z,13.13
2022-09-09T09:04:43.190Z,14.20
2022-09-09T09:07:13.341Z,12.10
2022-09-09T09:10:40.035Z,13.23
2022-09-09T09:13:16.927Z,10.53
2022-09-09T09:15:48.051Z,8.57
2022-09-09T09:18:17.001Z,6.13
2022-09-09T09:21:06.276Z,7.97
2022-09-09T09:24:10.309Z,6.70
2022-09-09T09:26:38.401Z,5.27
2022-09-09T09:29:19.986Z,4.60
2022-09-09T09:31:53.464Z,5.70
2022-09-09T09:34:20.454Z,12.50
2022-09-09T09:36:54.353Z,8.40
2022-09-09T09:42:28.377Z,9.37
2022-09-09T09:45:08.023Z,4.10
2022-09-09T09:47:35.192Z,8.50
2022-09-09T09:50:21.492Z,5.93
2022-09-09T09:53:00.147Z,4.77
2022-09-09T09:55:32.181Z,6.27
2022-09-09T09:58:06.965Z,5.27
2022-09-09T10:00:38.101Z,3.23
2022-09-09T10:03:29.611Z,5.50
2022-09-09T10:05:57.948Z,2.03
2022-09-09T10:08:28.750Z,3.37
2022-09-09T10:11:07.988Z,3.77
2022-09-09T10:13:58.804Z,6.63
2022-09-09T10:16:47.513Z,3.57
2022-09-09T10:19:20.205Z,2.87
2022-09-09T10:22:18.268Z,7.53
2022-09-09T10:25:13.001Z,8.23
2022-09-09T10:28:03.972Z,5.47
2022-09-09T10:30:44.621Z,5.63
2022-09-09T10:33:20.113Z,4.57
2022-09-09T10:35:58.101Z,6.43
2022-09-09T10:38:35.304Z,4.70
2022-09-09T10:41:11.252Z,3.10
2022-09-09T10:44:01.714Z,4.03
2022-09-09T10:46:40.651Z,5.77
2022-09-09T10:49:26.134Z,3.90
2022-09-09T10:52:12.014Z,9.47
2022-09-09T10:54:54.753Z,5.90
2022-09-09T10:57:38.490Z,4.93
2022-09-09T11:00:15.776Z,6.63
2022-09-09T11:02:43.162Z,6.27
2022-09-09T11:05:41.155Z,6.23
2022-09-09T11:08:20.815Z,8.53
2022-09-09T11:11:01.505Z,5.63
2022-09-09T11:13:44.339Z,3.50
2022-09-09T11:16:31.786Z,3.57
2022-09-09T11:19:04.819Z,5.13
2022-09-09T11:21:48.392Z,2.30
2022-09-09T11:24:20.180Z,2.80
2022-09-09T11:26:59.163Z,4.37
2022-09-09T11:29:26.440Z,1.93
2022-09-09T11:32:22.728Z,4.43
2022-09-09T11:35:22.024Z,3.10
2022-09-09T11:38:01.093Z,3.63
2022-09-09T11:40:29.544Z,5.07
2022-09-09T11:43:05.949Z,4.33
2022-09-09T11:45:36.725Z,3.10
2022-09-09T11:48:07.006Z,5.43
2022-09-09T11:50:38.630Z,2.10
2022-09-09T11:53:24.649Z,4.33
2022-09-09T11:56:16.917Z,5.53
2022-09-09T11:59:00.554Z,6.87
2022-09-09T12:01:35.021Z,6.00
2022-09-09T12:04:29.882Z,2.93
2022-09-09T12:07:04.901Z,6.50
2022-09-09T12:09:34.601Z,6.57
2022-09-09T12:12:13.619Z,2.03
2022-09-09T12:14:44.304Z,2.40
2022-09-09T12:17:17.095Z,22.77
2022-09-09T12:19:44.078Z,3.80
2022-09-09T12:22:50.716Z,7.00
2022-09-09T12:25:37.609Z,7.50
2022-09-09T12:28:18.864Z,4.50
2022-09-09T12:31:11.093Z,7.03
2022-09-09T12:33:44.153Z,4.07
2022-09-09T12:36:33.801Z,3.47
2022-09-09T12:39:18.037Z,5.03
2022-09-09T12:41:57.701Z,6.37
2022-09-09T12:44:30.926Z,6.03
2022-09-09T12:47:01.667Z,6.40
2022-09-09T12:49:36.578Z,5.93
2022-09-09T12:52:07.076Z,3.20
2022-09-09T12:54:37.317Z,4.30
2022-09-09T12:57:06.082Z,3.33
2022-09-09T12:59:38.911Z,3.10
2022-09-09T13:02:18.702Z,6.97
2022-09-09T13:04:47.951Z,2.67
2022-09-09T13:07:17.410Z,4.17
2022-09-09T13:09:45.914Z,5.83
2022-09-09T13:12:20.551Z,8.77
2022-09-09T13:14:54.085Z,5.60
2022-09-09T13:17:30.047Z,4.40
2022-09-09T13:19:58.036Z,4.37
2022-09-09T13:22:35.365Z,7.17
2022-09-09T13:25:12.441Z,6.10
2022-09-09T13:27:53.912Z,4.00
2022-09-09T13:30:23.994Z,6.10
2022-09-09T13:33:15.659Z,10.50
2022-09-09T13:35:56.208Z,4.00
2022-09-09T13:38:27.730Z,2.83
2022-09-09T13:41:04.290Z,7.40
2022-09-09T13:43:36.730Z,6.33
2022-09-09T13:46:07.289Z,3.47
2022-09-09T13:48:34.292Z,6.67
2022-09-09T13:51:06.254Z,5.50
2022-09-09T13:53:33.518Z,3.87
2022-09-09T13:56:00.924Z,3.13
2022-09-09T13:58:27.990Z,6.70
2022-09-09T14:00:55.563Z,4.20
2022-09-09T14:03:22.680Z,6.10
2022-09-09T14:05:49.929Z,2.27
2022-09-09T14:08:23.604Z,5.60
2022-09-09T14:10:50.632Z,6.67
2022-09-09T14:13:17.542Z,6.17
2022-09-09T14:15:44.682Z,5.07
2022-09-09T14:18:14.912Z,5.90
2022-09-09T14:20:41.859Z,8.63
2022-09-09T14:23:12.617Z,1.93
2022-09-09T14:25:42.357Z,8.47
2022-09-09T14:28:11.570Z,2.37
2022-09-09T14:30:40.771Z,4.67
2022-09-09T14:33:09.624Z,3.03
2022-09-09T14:35:37.253Z,3.27
2022-09-09T14:38:05.727Z,1.87
2022-09-09T14:40:32.869Z,2.33
2022-09-09T14:43:00.242Z,5.80
2022-09-09T14:45:27.266Z,5.10
2022-09-09T14:47:54.289Z,4.00
2022-09-09T14:50:22.471Z,1.60
2022-09-09T14:52:49.485Z,5.30
2022-09-09T14:55:16.645Z,5.30
2022-09-09T14:57:44.037Z,2.73
2022-09-09T15:00:13.366Z,2.40
2022-09-09T15:02:40.860Z,4.40
2022-09-09T15:05:08.357Z,5.93
2022-09-09T15:07:35.351Z,2.03
2022-09-09T15:10:02.346Z,3.27
2022-09-09T15:12:29.457Z,4.23
2022-09-09T15:14:56.845Z,5.67
2022-09-09T15:17:25.559Z,3.63
2022-09-09T15:19:53.192Z,3.47
2022-09-09T15:22:20.130Z,2.20
2022-09-09T15:24:47.084Z,1.60
2022-09-09T15:27:15.623Z,1.40
2022-09-09T15:29:43.143Z,4.77
2022-09-09T15:32:10.061Z,3.87
2022-09-09T15:34:37.011Z,5.07
2022-09-09T15:37:04.014Z,2.47
2022-09-09T15:39:31.612Z,4.87
2022-09-09T15:42:01.504Z,5.10
2022-09-09T15:44:28.422Z,3.60
2022-09-09T15:46:55.417Z,6.00
2022-09-09T15:49:27.177Z,3.53
2022-09-09T15:51:59.292Z,1.77
2022-09-09T15:54:27.481Z,4.30
2022-09-09T15:56:57.075Z,5.20
2022-09-09T15:59:25.430Z,3.40
2022-09-09T16:01:52.990Z,4.03
2022-09-09T16:04:26.786Z,1.83
2022-09-09T16:06:59.473Z,4.10
2022-09-09T16:09:27.813Z,2.23
2022-09-09T16:11:57.764Z,2.67
2022-09-09T16:14:26.419Z,2.33
2022-09-09T16:16:53.504Z,3.23
2022-09-09T16:19:20.686Z,6.70
2022-09-09T16:21:49.689Z,2.63
2022-09-09T16:24:21.443Z,5.70
2022-09-09T16:26:51.262Z,4.17
2022-09-09T16:29:19.671Z,2.23
2022-09-09T16:31:47.999Z,3.77
2022-09-09T16:34:16.539Z,7.33
2022-09-09T16:36:44.736Z,20.50
2022-09-09T16:39:17.134Z,11.63
2022-09-09T16:41:45.736Z,12.73
2022-09-09T16:44:15.010Z,10.17
2022-09-09T16:46:43.686Z,6.23
2022-09-09T16:49:13.278Z,4.57
2022-09-09T16:51:50.763Z,14.10
2022-09-09T16:54:18.926Z,9.23
2022-09-09T16:56:48.050Z,17.80
2022-09-09T16:59:17.724Z,15.10
2022-09-09T17:01:46.583Z,11.13
2022-09-09T17:04:25.102Z,8.27
2022-09-09T17:06:54.312Z,6.13
2022-09-09T17:09:23.474Z,5.03
2022-09-09T17:11:54.131Z,4.77
2022-09-09T17:14:24.804Z,3.70
2022-09-09T17:16:51.869Z,6.00
2022-09-09T17:19:19.340Z,2.47
2022-09-09T17:22:15.430Z,4.33
2022-09-09T17:24:35.469Z,4.63
2022-09-09T17:27:03.240Z,6.47
2022-09-09T17:29:30.369Z,6.77
2022-09-09T17:31:57.520Z,3.47
2022-09-09T17:34:25.166Z,4.07
2022-09-09T17:36:53.149Z,10.93
2022-09-09T17:39:20.320Z,5.60
2022-09-09T17:41:47.577Z,3.83
2022-09-09T17:44:14.534Z,1.83
2022-09-09T17:46:43.256Z,5.47
2022-09-09T17:49:15.444Z,5.03
2022-09-09T17:51:43.912Z,5.63
2022-09-09T17:54:20.945Z,5.20
2022-09-09T17:56:48.984Z,4.83
2022-09-09T17:59:17.711Z,5.70
2022-09-09T18:01:47.273Z,6.23
2022-09-09T18:04:16.381Z,3.37
2022-09-09T18:06:46.013Z,4.83
2022-09-09T18:09:19.701Z,6.70
2022-09-09T18:11:51.208Z,2.97
2022-09-09T18:14:21.418Z,3.73
2022-09-09T18:16:49.919Z,2.17
2022-09-09T18:19:21.207Z,7.50
2022-09-09T18:21:49.318Z,4.10
2022-09-09T18:24:17.767Z,4.33
2022-09-09T18:26:45.625Z,4.27
2022-09-09T18:29:15.853Z,3.73
2022-09-09T18:31:43.256Z,4.43
2022-09-09T18:34:13.018Z,6.70
2022-09-09T18:36:46.956Z,8.17
2022-09-09T18:39:16.283Z,4.77
2022-09-09T18:41:52.546Z,5.23
2022-09-09T18:44:22.748Z,5.83
2022-09-09T18:46:50.628Z,5.60
2022-09-09T18:49:17.971Z,6.77
2022-09-09T18:51:46.581Z,5.93
2022-09-09T18:54:16.818Z,3.63
2022-09-09T18:56:44.458Z,6.70
2022-09-09T18:59:15.092Z,3.77
2022-09-09T19:01:42.946Z,5.67
2022-09-09T19:04:10.110Z,6.47
2022-09-09T19:06:40.767Z,6.53
2022-09-09T19:09:11.318Z,3.90
2022-09-09T19:11:38.857Z,2.57
2022-09-09T19:14:10.719Z,5.40
2022-09-09T19:16:39.243Z,6.73
2022-09-09T19:19:15.683Z,3.70
2022-09-09T19:21:43.737Z,5.00
2022-09-09T19:24:20.314Z,3.10
2022-09-09T19:26:51.154Z,5.87
2022-09-09T19:29:23.203Z,4.37
2022-09-09T19:32:18.962Z,3.30
2022-09-09T19:34:38.503Z,3.10
2022-09-09T19:37:05.755Z,3.57
2022-09-09T19:39:34.627Z,5.77
2022-09-09T19:42:02.063Z,4.87
2022-09-09T19:44:29.393Z,1.83
2022-09-09T19:46:56.343Z,6.07
2022-09-09T19:49:23.444Z,2.57
2022-09-09T19:51:50.455Z,2.63
2022-09-09T19:54:17.411Z,2.97
2022-09-09T19:56:44.677Z,2.63
2022-09-09T19:59:13.416Z,1.80
2022-09-09T20:01:44.629Z,5.57
2022-09-09T20:04:12.880Z,6.17
2022-09-09T20:06:42.220Z,2.67
2022-09-09T20:09:14.916Z,3.33
2022-09-09T20:11:43.246Z,3.30
2022-09-09T20:14:11.674Z,5.93
2022-09-09T20:16:39.602Z,2.37
2022-09-09T20:19:08.171Z,1.83
2022-09-09T20:21:38.383Z,5.60
2022-09-09T20:24:10.982Z,3.57
2022-09-09T20:26:38.019Z,3.20
2022-09-09T20:29:15.750Z,3.17
2022-09-09T20:31:45.023Z,4.17
2022-09-09T20:34:16.016Z,6.77
2022-09-09T20:36:43.339Z,2.43
2022-09-09T20:39:15.052Z,2.77
2022-09-09T20:41:44.419Z,5.10
2022-09-09T20:44:17.324Z,3.30
2022-09-09T20:46:49.883Z,4.60
2022-09-09T20:49:19.829Z,4.63
2022-09-09T20:51:49.929Z,5.10
2022-09-09T20:54:23.535Z,6.13
2022-09-09T20:56:52.356Z,4.37
2022-09-09T20:59:22.244Z,5.40
2022-09-09T21:01:50.100Z,4.27
2022-09-09T21:04:19.717Z,5.50
2022-09-09T21:06:49.179Z,3.40
2022-09-09T21:09:17.842Z,2.53
2022-09-09T21:11:44.906Z,5.63
2022-09-09T21:14:12.595Z,5.63
2022-09-09T21:16:39.601Z,2.10
2022-09-09T21:19:06.835Z,13.37
2022-09-09T21:21:33.962Z,4.57
2022-09-09T21:24:01.011Z,3.97
2022-09-09T21:26:28.665Z,4.77
2022-09-09T21:28:56.343Z,3.67
2022-09-09T21:31:27.917Z,3.97
2022-09-09T21:33:57.221Z,3.03
2022-09-09T21:36:25.465Z,3.00
2022-09-09T21:38:52.411Z,4.60
2022-09-09T21:41:19.519Z,4.77
2022-09-09T21:43:51.331Z,4.50
2022-09-09T21:46:18.505Z,5.13
2022-09-09T21:48:45.551Z,8.20
2022-09-09T21:51:14.996Z,5.63
2022-09-09T21:53:41.981Z,4.73
2022-09-09T21:56:17.403Z,6.77
2022-09-09T21:58:45.079Z,4.93
2022-09-09T22:01:15.859Z,4.80
2022-09-09T22:03:43.797Z,6.20
2022-09-09T22:06:14.272Z,5.03
2022-09-09T22:08:41.244Z,7.27
2022-09-09T22:11:14.001Z,6.07
2022-09-09T22:13:42.574Z,8.40
2022-09-09T22:16:12.402Z,6.70
2022-09-09T22:18:40.493Z,6.83
2022-09-09T22:21:16.573Z,5.33
2022-09-09T22:23:43.866Z,8.70
2022-09-09T22:26:11.063Z,8.47
2022-09-09T22:28:38.824Z,6.10
2022-09-09T22:31:06.125Z,7.80
2022-09-09T22:33:33.708Z,8.83
2022-09-09T22:36:00.694Z,9.00
2022-09-09T22:38:27.651Z,9.97
2022-09-09T22:40:54.869Z,7.73
2022-09-09T22:43:22.902Z,10.23
2022-09-09T22:45:50.927Z,16.60
2022-09-09T22:48:18.431Z,12.27
2022-09-09T22:50:45.739Z,7.43
2022-09-09T22:53:18.702Z,14.40
2022-09-09T22:55:59.413Z,8.17
2022-09-09T22:58:29.164Z,11.70
2022-09-09T23:00:59.930Z,10.13
2022-09-09T23:03:28.877Z,10.80
2022-09-09T23:06:00.689Z,11.67
2022-09-09T23:08:33.865Z,11.70
2022-09-09T23:11:03.960Z,12.53
2022-09-09T23:13:33.183Z,12.23
2022-09-09T23:16:03.926Z,11.97
2022-09-09T23:18:31.142Z,9.67
2022-09-09T23:21:01.356Z,9.60
2022-09-09T23:23:28.834Z,12.80
2022-09-09T23:25:55.761Z,13.17
2022-09-09T23:28:22.716Z,12.70
2022-09-09T23:30:50.803Z,15.10
2022-09-09T23:33:17.846Z,14.17
2022-09-09T23:35:44.861Z,11.10
2022-09-09T23:38:11.732Z,10.87
2022-09-09T23:40:39.944Z,13.77
2022-09-09T23:43:07.182Z,14.03
2022-09-09T23:45:34.228Z,14.30
2022-09-09T23:48:01.143Z,10.20
2022-09-09T23:50:28.191Z,11.43
2022-09-09T23:52:55.083Z,11.07
2022-09-09T23:55:23.879Z,14.23
2022-09-09T23:57:51.148Z,12.33
